Terminal Aerodrome Forecast
Issued by NWS

Current Version | Previous Version | Graphics & Text | Print | Product List | Glossary On
Versions: 1 2 3 4 5 6 7 8 9 10 11 12 13 14 15 16 17 18 19
559
FTUS41 KPBZ 221709 AAA
TAFMGW
TAF AMD
KMGW 221709Z 2217/2312 28011G17KT P6SM BKN250
     FM222200 28008KT P6SM SCT035
     FM230500 03004KT P6SM OVC250=

USA.gov is the U.S. government's official web portal to all federal, state and local government web resources and services.